Time;durP1;ratioP1;P1;durP2;ratioP2;P2;SDS_P1;SDS_P2;PMS_P1;PMS_P2;Temp;Humidity;BMP_temperature;BMP_pressure;BME280_temperature;BME280_humidity;BME280_pressure;Samples;Min_cycle;Max_cycle;Signal;HPM_P1;HPM_P2
2023/02/27 00:00:17;;;;;;;11.75;3.05;;;0.30;99.90;;;;;;6216671;23;20317;-83
2023/02/27 00:02:46;;;;;;;6.28;2.60;;;0.60;99.90;;;;;;6191282;23;20018;-83
2023/02/27 00:05:13;;;;;;;6.80;2.80;;;0.70;99.90;;;;;;6193708;23;20042;-83
2023/02/27 00:07:39;;;;;;;9.88;2.47;;;0.40;99.90;;;;;;6247814;23;20044;-81
2023/02/27 00:10:06;;;;;;;7.72;2.40;;;0.40;99.90;;;;;;6218015;23;20117;-83
2023/02/27 00:12:36;;;;;;;8.00;2.50;;;0.80;99.90;;;;;;6191741;23;20016;-84
2023/02/27 00:15:14;;;;;;;8.50;2.47;;;0.60;99.90;;;;;;6192210;23;20325;-82
2023/02/27 00:17:41;;;;;;;9.18;2.67;;;0.60;99.90;;;;;;6209913;23;20132;-82
2023/02/27 00:20:12;;;;;;;6.18;2.33;;;0.50;99.90;;;;;;6157896;23;20313;-84
2023/02/27 00:22:42;;;;;;;6.18;2.63;;;0.80;99.90;;;;;;6159357;23;20021;-83
2023/02/27 00:25:08;;;;;;;7.68;2.53;;;0.40;99.90;;;;;;6184998;23;20009;-82
2023/02/27 00:27:35;;;;;;;8.00;2.38;;;0.70;99.90;;;;;;6185308;23;20040;-84
2023/02/27 00:30:05;;;;;;;8.23;2.42;;;0.60;99.90;;;;;;6159712;23;20009;-83
2023/02/27 00:32:31;;;;;;;9.52;2.55;;;0.70;99.90;;;;;;6212051;23;20310;-83
2023/02/27 00:34:57;;;;;;;6.55;2.45;;;0.50;99.90;;;;;;6191901;23;20127;-82
2023/02/27 00:37:23;;;;;;;7.53;2.55;;;0.90;99.90;;;;;;6163890;23;20020;-83
2023/02/27 00:39:49;;;;;;;11.15;2.50;;;0.40;99.90;;;;;;6160584;23;20051;-83
2023/02/27 00:42:15;;;;;;;12.38;2.72;;;0.20;99.90;;;;;;6159523;23;20325;-83
2023/02/27 00:44:40;;;;;;;12.07;2.42;;;0.60;99.90;;;;;;6160435;23;20353;-83
2023/02/27 00:47:06;;;;;;;7.80;2.72;;;0.60;99.90;;;;;;6210664;23;20012;-84
2023/02/27 00:49:32;;;;;;;8.55;2.60;;;0.30;99.90;;;;;;6183482;23;20047;-85
2023/02/27 00:51:58;;;;;;;7.43;2.47;;;0.00;99.90;;;;;;6181390;23;20017;-84
2023/02/27 00:54:24;;;;;;;9.45;2.90;;;-0.10;99.90;;;;;;6159068;23;20059;-81
2023/02/27 00:56:49;;;;;;;8.55;2.50;;;-0.10;99.90;;;;;;6183199;23;20107;-82
2023/02/27 00:59:15;;;;;;;10.80;2.58;;;-0.20;99.90;;;;;;6159104;23;20013;-83
2023/02/27 01:01:41;;;;;;;12.55;2.88;;;-0.20;99.90;;;;;;6186746;23;20695;-83
2023/02/27 01:04:06;;;;;;;9.63;2.60;;;0.00;99.90;;;;;;6160257;23;20012;-81
2023/02/27 01:06:32;;;;;;;7.57;2.47;;;-0.10;99.90;;;;;;6157908;23;20553;-82
2023/02/27 01:09:13;;;;;;;9.63;3.72;;;-0.50;99.90;;;;;;6184815;23;20069;-83
2023/02/27 01:11:38;;;;;;;12.13;2.80;;;0.00;99.90;;;;;;6184922;23;20024;-83
2023/02/27 01:14:04;;;;;;;8.55;2.88;;;-0.50;99.90;;;;;;6161859;23;20012;-81
2023/02/27 01:16:30;;;;;;;7.50;2.90;;;-0.40;99.90;;;;;;6158676;23;20139;-81
2023/02/27 01:18:56;;;;;;;17.83;3.70;;;-0.60;99.90;;;;;;6159378;23;20315;-82
2023/02/27 01:21:22;;;;;;;9.02;2.55;;;0.10;99.90;;;;;;6158455;23;20100;-81
2023/02/27 01:23:48;;;;;;;11.40;2.63;;;0.20;99.90;;;;;;6158436;23;20111;-81
2023/02/27 01:26:13;;;;;;;9.35;2.53;;;-0.30;99.90;;;;;;6156521;23;20332;-82
2023/02/27 01:28:39;;;;;;;6.95;2.60;;;-0.10;99.90;;;;;;6181755;23;20051;-82
2023/02/27 01:31:05;;;;;;;8.68;2.67;;;0.20;99.90;;;;;;6158707;23;20189;-82
2023/02/27 01:33:31;;;;;;;11.05;2.70;;;-0.40;99.90;;;;;;6209382;23;20047;-82
2023/02/27 01:35:56;;;;;;;5.43;2.42;;;-0.40;99.90;;;;;;6158029;23;20021;-81
2023/02/27 01:38:40;;;;;;;7.95;2.38;;;-0.40;99.90;;;;;;6181335;23;20023;-82
2023/02/27 01:41:06;;;;;;;8.60;2.40;;;0.10;99.90;;;;;;6182368;23;20013;-82
2023/02/27 01:43:33;;;;;;;5.85;2.38;;;0.10;99.90;;;;;;6159394;23;20019;-82
2023/02/27 01:45:59;;;;;;;9.70;2.70;;;-0.40;99.90;;;;;;6182809;23;20405;-81
2023/02/27 01:48:32;;;;;;;5.72;2.50;;;-0.40;99.90;;;;;;6157478;23;20032;-81
2023/02/27 01:51:10;;;;;;;5.47;2.50;;;-0.50;99.90;;;;;;6181722;23;20019;-82
2023/02/27 01:53:38;;;;;;;9.23;2.70;;;0.10;99.90;;;;;;6158813;23;20009;-81
2023/02/27 01:56:09;;;;;;;7.78;2.08;;;0.10;99.90;;;;;;6157540;23;20013;-82
2023/02/27 01:58:35;;;;;;;8.65;2.63;;;0.20;99.90;;;;;;6183794;23;20413;-82
2023/02/27 02:01:01;;;;;;;7.10;2.58;;;0.10;99.90;;;;;;6182505;23;20013;-83
2023/02/27 02:03:53;;;;;;;7.03;2.50;;;0.30;99.90;;;;;;6160358;23;20016;-82
2023/02/27 02:06:19;;;;;;;13.52;2.83;;;-0.10;99.90;;;;;;6155210;23;20115;-82
2023/02/27 02:08:48;;;;;;;9.95;2.45;;;-0.20;99.90;;;;;;6157569;23;20020;-83
2023/02/27 02:11:16;;;;;;;6.32;2.15;;;0.10;99.90;;;;;;6156790;23;20012;-82
2023/02/27 02:13:42;;;;;;;11.70;2.60;;;0.10;99.90;;;;;;6183652;23;20009;-83
2023/02/27 02:16:17;;;;;;;9.15;2.75;;;0.20;99.90;;;;;;6183338;23;20023;-83
2023/02/27 02:19:01;;;;;;;11.07;2.65;;;0.20;99.90;;;;;;6197312;23;20035;-82
2023/02/27 02:21:45;;;;;;;4.93;2.28;;;-0.20;99.90;;;;;;6208568;23;20017;-82
2023/02/27 02:24:29;;;;;;;9.43;3.05;;;-0.30;99.90;;;;;;6182644;23;20023;-82
2023/02/27 02:27:28;;;;;;;9.90;2.42;;;-0.20;99.90;;;;;;6181554;23;20373;-82
2023/02/27 02:30:15;;;;;;;5.60;2.30;;;-0.30;99.90;;;;;;6208305;23;20013;-83
2023/02/27 02:33:02;;;;;;;8.32;2.55;;;-0.40;99.90;;;;;;6208076;23;20019;-82
2023/02/27 02:35:53;;;;;;;9.18;2.88;;;-0.10;99.90;;;;;;6183430;23;20013;-82
2023/02/27 02:38:37;;;;;;;7.22;2.40;;;0.10;99.90;;;;;;6208386;23;20016;-82
2023/02/27 02:41:12;;;;;;;8.38;2.67;;;-0.30;99.90;;;;;;6206894;23;20340;-82
2023/02/27 02:43:59;;;;;;;6.85;2.17;;;0.10;99.90;;;;;;6185249;23;20072;-82
2023/02/27 02:46:28;;;;;;;7.53;2.70;;;0.20;99.90;;;;;;6184930;23;20008;-81
2023/02/27 02:49:12;;;;;;;5.05;1.90;;;0.00;99.90;;;;;;6184372;23;20044;-82
2023/02/27 02:51:53;;;;;;;5.43;2.50;;;-0.10;99.90;;;;;;6183854;23;20020;-82
2023/02/27 02:54:32;;;;;;;7.63;2.13;;;0.40;99.90;;;;;;6184093;23;20059;-82
2023/02/27 02:57:09;;;;;;;9.90;2.60;;;0.40;99.90;;;;;;6184242;23;20471;-82
2023/02/27 02:59:56;;;;;;;12.00;2.40;;;0.20;99.90;;;;;;6184059;23;20046;-82
2023/02/27 03:02:27;;;;;;;7.35;2.20;;;0.10;99.90;;;;;;6208756;23;20013;-82
2023/02/27 03:04:58;;;;;;;4.28;1.88;;;0.40;99.90;;;;;;6185478;23;20031;-82
2023/02/27 03:07:56;;;;;;;8.55;2.65;;;0.50;99.90;;;;;;6184110;23;20038;-82
2023/02/27 03:10:43;;;;;;;14.35;2.58;;;0.10;99.90;;;;;;6203897;23;20013;-82
2023/02/27 03:13:43;;;;;;;4.85;2.17;;;-0.10;99.90;;;;;;6184208;23;20016;-82
2023/02/27 03:16:24;;;;;;;8.48;2.20;;;0.40;99.90;;;;;;6094331;23;20025;-82
2023/02/27 03:19:14;;;;;;;11.57;1.95;;;-0.10;99.90;;;;;;6069635;23;20093;-82
2023/02/27 03:21:52;;;;;;;6.50;2.10;;;-0.30;99.90;;;;;;6093573;23;20158;-82
2023/02/27 03:24:35;;;;;;;7.78;2.15;;;-0.40;99.90;;;;;;6071050;23;20280;-82
2023/02/27 03:27:03;;;;;;;4.18;1.63;;;-0.40;99.90;;;;;;6093790;23;20010;-82
2023/02/27 03:29:37;;;;;;;10.90;2.13;;;-0.40;99.90;;;;;;6094617;23;20010;-82
2023/02/27 03:32:12;;;;;;;7.93;1.88;;;-0.60;99.90;;;;;;6070011;23;20049;-82
2023/02/27 03:34:41;;;;;;;9.02;2.55;;;-0.50;99.90;;;;;;6070463;23;20109;-82
2023/02/27 03:37:22;;;;;;;5.47;1.85;;;-0.60;99.90;;;;;;6093333;23;20014;-81
2023/02/27 03:40:03;;;;;;;5.13;2.15;;;-0.20;99.90;;;;;;6069517;23;20465;-81
2023/02/27 03:42:48;;;;;;;7.63;2.00;;;-0.20;99.90;;;;;;6068154;23;20033;-81
2023/02/27 03:45:36;;;;;;;6.40;2.20;;;-0.70;99.90;;;;;;6070432;23;20085;-81
2023/02/27 03:48:03;;;;;;;7.97;2.30;;;-0.50;99.90;;;;;;6070619;23;20016;-81
2023/02/27 03:50:29;;;;;;;5.13;2.30;;;-0.90;99.90;;;;;;6094937;23;20665;-81
2023/02/27 03:52:56;;;;;;;8.90;2.75;;;-0.60;99.90;;;;;;6152344;23;20105;-81
2023/02/27 03:55:27;;;;;;;4.57;2.03;;;-0.60;99.90;;;;;;6215605;23;20020;-82
2023/02/27 03:57:53;;;;;;;7.70;2.50;;;-0.90;99.90;;;;;;6242474;23;20042;-81
2023/02/27 04:00:22;;;;;;;10.10;2.60;;;-0.80;99.90;;;;;;6216471;23;20382;-81
2023/02/27 04:02:50;;;;;;;6.10;2.30;;;-0.80;99.90;;;;;;6216263;23;20012;-81
2023/02/27 04:05:16;;;;;;;8.25;2.15;;;-1.00;99.90;;;;;;6242572;23;20043;-81
2023/02/27 04:07:45;;;;;;;12.68;2.42;;;-0.50;99.90;;;;;;6191338;23;20019;-81
2023/02/27 04:10:33;;;;;;;9.43;2.20;;;-0.70;99.90;;;;;;6196722;23;20008;-81
2023/02/27 04:13:20;;;;;;;6.35;2.38;;;-0.70;99.90;;;;;;6220557;23;20027;-82
2023/02/27 04:16:14;;;;;;;6.13;1.80;;;-0.90;99.90;;;;;;6217112;23;20348;-81
2023/02/27 04:19:03;;;;;;;8.38;2.03;;;-1.00;99.90;;;;;;6066687;23;20104;-82
2023/02/27 04:21:57;;;;;;;5.15;2.03;;;-0.50;99.90;;;;;;6088322;23;20545;-81
2023/02/27 04:24:39;;;;;;;5.68;1.80;;;-0.60;99.90;;;;;;6068712;23;20015;-82
2023/02/27 04:27:30;;;;;;;7.30;2.13;;;-1.10;99.90;;;;;;6064402;23;20011;-82
2023/02/27 04:30:00;;;;;;;8.43;2.00;;;-1.10;99.90;;;;;;6063948;23;20557;-81
2023/02/27 04:32:42;;;;;;;8.60;2.00;;;-0.60;99.90;;;;;;6064181;23;20097;-82
2023/02/27 04:35:30;;;;;;;7.22;1.92;;;-1.10;99.90;;;;;;6089137;23;20041;-81
2023/02/27 04:38:05;;;;;;;8.18;2.10;;;-1.30;99.90;;;;;;6064789;23;20105;-82
2023/02/27 04:40:59;;;;;;;7.00;1.98;;;-1.20;99.90;;;;;;6062745;23;20332;-82
2023/02/27 04:43:27;;;;;;;7.17;1.70;;;-0.90;99.90;;;;;;6061958;23;20301;-82
2023/02/27 04:45:55;;;;;;;4.55;1.70;;;-0.80;99.90;;;;;;6089375;23;20022;-82
2023/02/27 04:48:26;;;;;;;7.57;2.10;;;-0.80;99.90;;;;;;6065241;23;20050;-81
2023/02/27 04:51:04;;;;;;;9.80;2.00;;;-1.50;99.90;;;;;;6065627;23;20121;-82
2023/02/27 04:53:45;;;;;;;6.28;1.50;;;-1.50;99.90;;;;;;6065383;23;20404;-82
2023/02/27 04:56:19;;;;;;;10.00;2.20;;;-1.30;99.90;;;;;;6149373;23;20049;-82
2023/02/27 04:59:04;;;;;;;5.65;1.42;;;-1.10;99.90;;;;;;6187839;23;20145;-82
2023/02/27 05:01:44;;;;;;;4.43;1.77;;;-1.10;99.90;;;;;;6213745;23;20095;-82
2023/02/27 05:04:14;;;;;;;7.80;2.03;;;-1.80;99.90;;;;;;6190327;23;20332;-81
2023/02/27 05:06:43;;;;;;;5.25;1.80;;;-1.70;99.90;;;;;;6190676;23;20438;-82
2023/02/27 05:09:37;;;;;;;10.32;2.25;;;-1.10;99.90;;;;;;6190670;23;20016;-82
2023/02/27 05:12:24;;;;;;;9.85;2.05;;;-1.00;99.90;;;;;;6189235;23;20074;-82
2023/02/27 05:15:23;;;;;;;9.13;1.88;;;-1.10;99.90;;;;;;6190187;23;20070;-81
2023/02/27 05:18:00;;;;;;;7.43;2.00;;;-1.70;99.90;;;;;;6190657;23;20116;-82
2023/02/27 05:20:50;;;;;;;10.68;1.88;;;-1.60;99.90;;;;;;6209311;23;20019;-82
2023/02/27 05:23:24;;;;;;;8.63;2.00;;;-1.40;99.90;;;;;;6122580;23;20021;-82
2023/02/27 05:26:00;;;;;;;6.97;1.88;;;-1.60;99.90;;;;;;6147468;23;20391;-83
2023/02/27 05:28:37;;;;;;;5.72;1.98;;;-1.60;99.90;;;;;;6121473;23;20013;-81
2023/02/27 05:31:22;;;;;;;10.40;1.83;;;-1.40;99.90;;;;;;6123991;23;20017;-82
2023/02/27 05:33:55;;;;;;;4.88;1.75;;;-2.00;99.90;;;;;;6098367;23;20017;-82
2023/02/27 05:36:29;;;;;;;4.63;1.70;;;-1.50;99.90;;;;;;6123055;23;20141;-82
2023/02/27 05:39:01;;;;;;;5.15;1.92;;;-1.80;99.90;;;;;;6124015;23;20018;-83
2023/02/27 05:41:26;;;;;;;6.97;1.70;;;-1.90;99.90;;;;;;6121767;23;20735;-82
2023/02/27 05:44:09;;;;;;;3.40;1.65;;;-1.70;99.90;;;;;;6122758;23;20021;-83
2023/02/27 05:46:40;;;;;;;5.72;1.70;;;-2.00;99.90;;;;;;6121978;23;20062;-83
2023/02/27 05:49:15;;;;;;;6.00;1.58;;;-2.20;99.90;;;;;;6098471;23;20101;-82
2023/02/27 05:51:45;;;;;;;4.95;1.60;;;-1.90;99.90;;;;;;6100025;23;20426;-82
2023/02/27 05:54:28;;;;;;;7.18;2.28;;;-1.70;99.90;;;;;;6097950;23;20396;-82
2023/02/27 05:56:56;;;;;;;8.25;1.95;;;-2.10;99.90;;;;;;6122098;23;20013;-83
2023/02/27 05:59:33;;;;;;;3.75;1.80;;;-1.70;99.90;;;;;;6103229;23;20048;-82
2023/02/27 06:01:58;;;;;;;3.97;1.73;;;-1.80;99.90;;;;;;6208506;23;20457;-82
2023/02/27 06:04:24;;;;;;;7.63;2.35;;;-1.70;99.90;;;;;;6209855;23;20104;-82
2023/02/27 06:06:50;;;;;;;16.27;2.20;;;-1.80;99.90;;;;;;6182494;23;20035;-83
2023/02/27 06:09:22;;;;;;;5.03;2.20;;;-2.10;99.90;;;;;;6207394;23;20074;-82
2023/02/27 06:11:47;;;;;;;6.65;2.00;;;-2.00;99.90;;;;;;6218633;23;20329;-81
2023/02/27 06:14:13;;;;;;;7.18;2.30;;;-2.10;99.90;;;;;;6185000;23;20020;-82
2023/02/27 06:16:39;;;;;;;9.82;2.30;;;-1.70;99.90;;;;;;6184197;23;20088;-82
2023/02/27 06:19:05;;;;;;;9.05;2.33;;;-1.50;99.90;;;;;;6186258;23;20013;-81
2023/02/27 06:21:32;;;;;;;7.28;2.40;;;-2.10;99.90;;;;;;6214579;23;20408;-82
2023/02/27 06:23:57;;;;;;;4.95;2.05;;;-2.00;99.90;;;;;;6188279;23;20904;-82
2023/02/27 06:26:23;;;;;;;8.35;2.60;;;-1.90;99.90;;;;;;6213596;23;20012;-82
2023/02/27 06:28:49;;;;;;;9.48;2.33;;;-2.00;99.90;;;;;;6213520;23;20324;-82
2023/02/27 06:31:14;;;;;;;7.50;2.53;;;-1.90;99.90;;;;;;6212918;23;20012;-82
2023/02/27 06:33:40;;;;;;;9.35;2.15;;;-1.50;99.90;;;;;;6188864;23;20014;-82
2023/02/27 06:36:06;;;;;;;7.90;2.50;;;-2.10;99.90;;;;;;6189193;23;20016;-82
2023/02/27 06:38:32;;;;;;;5.30;2.00;;;-1.90;99.90;;;;;;6190683;23;20373;-81
2023/02/27 06:41:18;;;;;;;10.07;2.35;;;-2.10;99.90;;;;;;6222440;23;20100;-81
2023/02/27 06:43:44;;;;;;;7.38;2.35;;;-1.70;99.90;;;;;;6188494;23;20024;-81
2023/02/27 06:46:09;;;;;;;6.95;2.40;;;-1.40;99.90;;;;;;6189187;23;20099;-82
2023/02/27 06:48:35;;;;;;;9.80;2.45;;;-1.40;99.90;;;;;;6213838;23;20019;-81
2023/02/27 06:51:02;;;;;;;12.45;2.85;;;-1.80;99.90;;;;;;6213852;23;20023;-81
2023/02/27 06:53:28;;;;;;;11.52;3.40;;;-1.40;99.90;;;;;;6213130;23;20051;-82
2023/02/27 06:55:53;;;;;;;8.10;2.60;;;-1.80;99.90;;;;;;6188125;23;20019;-81
2023/02/27 06:58:19;;;;;;;9.10;2.60;;;-1.10;99.90;;;;;;6212233;23;20016;-81
2023/02/27 07:00:45;;;;;;;17.40;3.15;;;-1.10;99.90;;;;;;6213154;23;20012;-82
2023/02/27 07:03:11;;;;;;;7.68;2.92;;;-1.10;99.90;;;;;;6216400;23;20091;-81
2023/02/27 07:05:37;;;;;;;10.85;3.13;;;-1.30;99.90;;;;;;6188002;23;20062;-82
2023/02/27 07:08:03;;;;;;;7.90;2.70;;;-1.00;99.90;;;;;;6187905;23;20016;-81
2023/02/27 07:10:29;;;;;;;8.77;3.00;;;-1.20;99.90;;;;;;6188079;23;20048;-80
2023/02/27 07:12:55;;;;;;;6.40;2.38;;;-0.70;99.90;;;;;;6213417;23;20023;-81
2023/02/27 07:15:21;;;;;;;13.55;3.33;;;-0.80;99.90;;;;;;6215199;23;20304;-82
2023/02/27 07:17:46;;;;;;;6.18;2.70;;;-0.60;99.90;;;;;;6244638;23;20036;-81
2023/02/27 07:20:12;;;;;;;8.23;2.95;;;-0.60;99.90;;;;;;6182737;23;20032;-81
2023/02/27 07:22:39;;;;;;;15.10;3.08;;;-0.30;99.90;;;;;;6157032;23;20024;-81
2023/02/27 07:25:06;;;;;;;11.85;2.85;;;-0.20;99.90;;;;;;6183978;23;20044;-82
2023/02/27 07:27:32;;;;;;;9.20;2.80;;;-0.10;99.90;;;;;;6183994;23;20020;-81
2023/02/27 07:29:57;;;;;;;10.98;3.70;;;-0.70;99.90;;;;;;6157596;23;20371;-81
2023/02/27 07:32:23;;;;;;;10.65;3.85;;;-0.20;99.90;;;;;;6166946;23;20115;-81
2023/02/27 07:34:49;;;;;;;12.20;3.20;;;-0.40;99.90;;;;;;6160059;23;20063;-82
2023/02/27 07:37:15;;;;;;;11.98;2.88;;;0.10;99.90;;;;;;6158748;23;20023;-82
2023/02/27 07:39:43;;;;;;;11.82;3.08;;;0.10;99.90;;;;;;6159309;23;20017;-82
2023/02/27 07:42:10;;;;;;;16.90;3.33;;;0.00;99.90;;;;;;6182294;23;20096;-82
2023/02/27 07:44:35;;;;;;;12.10;3.28;;;0.50;99.90;;;;;;6157085;23;20019;-82
2023/02/27 07:47:01;;;;;;;18.27;3.55;;;0.60;99.90;;;;;;6156662;23;20009;-82
2023/02/27 07:49:27;;;;;;;12.68;2.97;;;0.10;99.90;;;;;;6183610;23;20374;-82
2023/02/27 07:51:52;;;;;;;15.45;3.20;;;0.20;99.90;;;;;;6156157;23;20013;-81
2023/02/27 07:54:18;;;;;;;11.02;3.20;;;0.90;99.90;;;;;;6180499;23;20020;-82
2023/02/27 07:56:44;;;;;;;19.10;3.45;;;0.90;99.90;;;;;;6156518;23;20422;-82
2023/02/27 07:59:09;;;;;;;13.45;2.70;;;1.00;99.90;;;;;;6181599;23;20020;-81
2023/02/27 08:01:35;;;;;;;12.82;2.67;;;0.40;99.90;;;;;;6183155;23;20016;-81
2023/02/27 08:04:01;;;;;;;12.48;2.83;;;1.10;99.90;;;;;;6160506;23;20091;-81
2023/02/27 08:06:26;;;;;;;17.73;3.20;;;0.50;99.90;;;;;;6159596;23;20131;-82
2023/02/27 08:08:52;;;;;;;14.73;3.28;;;0.70;99.90;;;;;;6161412;23;20022;-82
2023/02/27 08:11:18;;;;;;;12.35;2.80;;;1.00;99.90;;;;;;6160351;23;20061;-82
2023/02/27 08:13:45;;;;;;;7.22;2.80;;;0.80;99.90;;;;;;6161489;23;20112;-82
2023/02/27 08:16:12;;;;;;;13.02;3.20;;;0.90;99.90;;;;;;6159583;23;20043;-82
2023/02/27 08:18:38;;;;;;;18.45;3.50;;;1.20;99.90;;;;;;6190112;23;20420;-82
2023/02/27 08:21:04;;;;;;;16.70;3.15;;;1.50;99.90;;;;;;6186444;23;20345;-82
2023/02/27 08:23:31;;;;;;;7.65;3.33;;;1.30;99.90;;;;;;6185372;23;20016;-82
2023/02/27 08:25:58;;;;;;;17.58;3.90;;;1.90;99.90;;;;;;6181205;23;20119;-82
2023/02/27 08:28:24;;;;;;;17.40;3.55;;;1.60;99.90;;;;;;6207763;23;20050;-83
2023/02/27 08:30:53;;;;;;;14.18;3.95;;;1.60;99.90;;;;;;6208284;23;20020;-84
2023/02/27 08:33:20;;;;;;;20.75;3.35;;;1.70;99.90;;;;;;6185717;23;20087;-83
2023/02/27 08:35:46;;;;;;;15.82;2.92;;;2.30;99.90;;;;;;6210893;23;20412;-85
2023/02/27 08:38:15;;;;;;;9.98;2.67;;;2.50;99.90;;;;;;6209354;23;20013;-83
2023/02/27 08:40:40;;;;;;;15.82;2.65;;;2.20;99.90;;;;;;6182950;23;20412;-82
2023/02/27 08:43:06;;;;;;;15.52;2.53;;;1.90;99.90;;;;;;6184437;23;20016;-83
2023/02/27 08:45:32;;;;;;;13.40;2.80;;;2.40;99.90;;;;;;6186816;23;20015;-83
2023/02/27 08:47:57;;;;;;;9.13;2.47;;;2.60;99.90;;;;;;6211622;23;20357;-82
2023/02/27 08:50:23;;;;;;;12.30;2.47;;;2.80;99.90;;;;;;6183923;23;20095;-83
2023/02/27 08:52:49;;;;;;;14.05;2.63;;;2.50;99.90;;;;;;6184102;23;20104;-85
2023/02/27 08:55:14;;;;;;;11.65;2.63;;;2.60;99.90;;;;;;6185484;23;20093;-84
2023/02/27 08:57:40;;;;;;;12.13;2.70;;;2.40;99.90;;;;;;6208689;23;20036;-82
2023/02/27 09:00:07;;;;;;;11.27;2.45;;;2.40;99.90;;;;;;6208629;23;20012;-85
2023/02/27 09:02:33;;;;;;;16.40;2.85;;;2.50;99.90;;;;;;6208470;23;20114;-82
2023/02/27 09:05:00;;;;;;;14.88;2.85;;;2.50;99.90;;;;;;6209295;23;20016;-86
2023/02/27 09:07:25;;;;;;;10.70;2.90;;;2.50;99.90;;;;;;6182566;23;20016;-85
2023/02/27 09:09:51;;;;;;;14.38;3.05;;;3.10;99.90;;;;;;6210267;23;20017;-81
2023/02/27 09:12:17;;;;;;;16.42;2.90;;;3.20;99.90;;;;;;6180407;23;20188;-84
2023/02/27 09:14:42;;;;;;;10.38;2.10;;;3.20;99.90;;;;;;6183293;23;20017;-81
2023/02/27 09:17:09;;;;;;;11.25;2.35;;;3.00;99.90;;;;;;6208567;23;20408;-81
2023/02/27 09:19:35;;;;;;;15.20;2.15;;;3.50;99.90;;;;;;6206875;23;20028;-82
2023/02/27 09:22:00;;;;;;;11.55;2.20;;;3.60;99.90;;;;;;6206672;23;20024;-80
2023/02/27 09:24:26;;;;;;;11.88;2.03;;;3.50;99.90;;;;;;6210419;23;20008;-82
2023/02/27 09:26:52;;;;;;;11.93;2.33;;;3.70;99.90;;;;;;6184804;23;20012;-81
2023/02/27 09:29:18;;;;;;;15.50;1.88;;;3.90;99.90;;;;;;6186715;23;20167;-81
2023/02/27 09:31:43;;;;;;;8.00;2.03;;;3.90;99.90;;;;;;6186135;23;20036;-81
2023/02/27 09:34:09;;;;;;;9.30;2.08;;;3.90;99.90;;;;;;6210305;23;20012;-80
2023/02/27 09:36:35;;;;;;;9.15;1.63;;;3.90;99.90;;;;;;6184367;23;20128;-81
2023/02/27 09:39:00;;;;;;;9.35;1.20;;;4.20;99.90;;;;;;6185016;23;20032;-80
2023/02/27 09:41:49;;;;;;;12.23;1.75;;;4.10;99.90;;;;;;6184724;23;20082;-81
2023/02/27 09:44:32;;;;;;;7.25;1.30;;;4.10;99.90;;;;;;6185238;23;20112;-80
2023/02/27 09:46:58;;;;;;;8.30;1.55;;;4.30;99.90;;;;;;6212774;23;20085;-81
2023/02/27 09:49:30;;;;;;;5.55;1.38;;;4.50;99.90;;;;;;6187008;23;20385;-81
2023/02/27 09:51:56;;;;;;;7.00;1.20;;;4.40;99.90;;;;;;6188014;23;20058;-80
2023/02/27 09:54:24;;;;;;;6.70;1.70;;;4.60;99.90;;;;;;6213404;23;20063;-80
2023/02/27 09:56:56;;;;;;;5.45;1.23;;;4.90;99.90;;;;;;6187178;23;20100;-80
2023/02/27 09:59:43;;;;;;;5.97;1.50;;;4.80;99.90;;;;;;6187353;23;20516;-80
2023/02/27 10:02:23;;;;;;;4.72;1.00;;;4.80;99.90;;;;;;6212965;23;20017;-81
2023/02/27 10:05:17;;;;;;;6.13;1.30;;;5.00;99.90;;;;;;6186171;23;20012;-81
2023/02/27 10:08:11;;;;;;;10.02;1.48;;;5.10;99.90;;;;;;6210812;23;20341;-82
2023/02/27 10:10:47;;;;;;;5.10;1.23;;;5.20;99.90;;;;;;6213104;23;20012;-81
2023/02/27 10:13:24;;;;;;;5.18;1.08;;;5.30;99.90;;;;;;6211076;23;20024;-81
2023/02/27 10:15:52;;;;;;;7.05;1.00;;;5.10;99.90;;;;;;6213290;23;20095;-81
2023/02/27 10:18:26;;;;;;;9.23;1.08;;;5.10;99.90;;;;;;6186996;23;20097;-82
2023/02/27 10:20:59;;;;;;;5.37;1.00;;;5.00;99.90;;;;;;6216465;23;20056;-81
2023/02/27 10:23:48;;;;;;;4.93;0.98;;;5.20;99.90;;;;;;6242138;23;20047;-81
2023/02/27 10:26:23;;;;;;;5.03;0.80;;;5.10;99.90;;;;;;6244215;23;20008;-81
2023/02/27 10:28:49;;;;;;;5.40;0.82;;;5.10;99.90;;;;;;6241519;23;20082;-80
2023/02/27 10:31:19;;;;;;;3.67;0.95;;;5.20;99.90;;;;;;6222927;23;20012;-81
2023/02/27 10:33:47;;;;;;;4.10;0.70;;;5.40;99.90;;;;;;6192599;23;20169;-81
2023/02/27 10:36:15;;;;;;;1.70;0.57;;;5.40;99.90;;;;;;6191260;23;20099;-81
2023/02/27 10:38:50;;;;;;;3.63;0.80;;;5.30;99.90;;;;;;6214518;23;20016;-81
2023/02/27 10:41:21;;;;;;;3.90;0.85;;;5.40;99.90;;;;;;6213207;23;20074;-82
2023/02/27 10:43:47;;;;;;;4.85;1.08;;;5.40;99.90;;;;;;6236832;23;20016;-82
2023/02/27 10:46:14;;;;;;;2.40;0.85;;;5.40;99.90;;;;;;6216012;23;20035;-81
2023/02/27 10:48:40;;;;;;;3.85;0.90;;;5.50;99.90;;;;;;6198368;23;20012;-81
2023/02/27 10:51:30;;;;;;;2.63;0.70;;;5.40;99.90;;;;;;6213012;23;20026;-81
2023/02/27 10:54:19;;;;;;;7.13;1.00;;;5.40;99.90;;;;;;6186996;23;20019;-82
2023/02/27 10:56:49;;;;;;;4.68;0.90;;;5.50;99.90;;;;;;6187724;23;20091;-82
2023/02/27 10:59:26;;;;;;;5.75;0.73;;;5.60;99.90;;;;;;6188681;23;20019;-82
2023/02/27 11:01:58;;;;;;;3.20;0.73;;;5.50;99.90;;;;;;6190144;23;20016;-81
2023/02/27 11:04:28;;;;;;;2.67;0.80;;;5.60;99.90;;;;;;6214687;23;20451;-82
2023/02/27 11:06:54;;;;;;;3.47;0.60;;;5.90;99.90;;;;;;6187882;23;20014;-82
2023/02/27 11:09:31;;;;;;;2.08;0.63;;;5.90;99.90;;;;;;6186766;23;20022;-82
2023/02/27 11:12:24;;;;;;;4.07;0.70;;;5.90;99.90;;;;;;6185117;23;20064;-82
2023/02/27 11:14:58;;;;;;;2.67;0.52;;;6.00;99.90;;;;;;6207149;23;20077;-81
2023/02/27 11:17:39;;;;;;;1.77;0.55;;;5.90;99.90;;;;;;6188741;23;20020;-81
2023/02/27 11:20:42;;;;;;;5.40;0.82;;;5.90;99.90;;;;;;6187063;23;20077;-81
2023/02/27 11:23:25;;;;;;;2.53;0.70;;;6.00;99.90;;;;;;6182378;23;20039;-80
2023/02/27 11:26:14;;;;;;;2.78;0.60;;;5.90;99.90;;;;;;6186814;23;20019;-82
2023/02/27 11:28:40;;;;;;;2.00;0.60;;;6.00;99.90;;;;;;6188965;23;20017;-81
2023/02/27 11:31:21;;;;;;;4.03;0.50;;;6.00;99.90;;;;;;6211550;23;20008;-82
2023/02/27 11:33:57;;;;;;;3.63;0.60;;;6.20;99.90;;;;;;6188430;23;20087;-81
2023/02/27 11:36:43;;;;;;;2.40;0.50;;;6.20;99.90;;;;;;6189500;23;20058;-81
2023/02/27 11:39:22;;;;;;;1.42;0.60;;;6.30;99.90;;;;;;6188185;23;20016;-81
2023/02/27 11:41:49;;;;;;;1.33;0.40;;;6.40;99.90;;;;;;6212699;23;20024;-82
2023/02/27 11:44:23;;;;;;;2.65;0.70;;;6.40;99.90;;;;;;6188615;23;20119;-80
2023/02/27 11:46:49;;;;;;;5.32;0.70;;;6.40;99.90;;;;;;6213886;23;20447;-81
2023/02/27 11:49:36;;;;;;;1.58;0.50;;;6.20;99.90;;;;;;6214691;23;20004;-81
2023/02/27 11:52:24;;;;;;;2.90;0.73;;;6.30;99.90;;;;;;6189399;23;20012;-84
2023/02/27 11:54:57;;;;;;;1.63;0.50;;;6.50;99.90;;;;;;6237595;23;20461;-80
2023/02/27 11:57:41;;;;;;;3.03;0.60;;;6.40;99.90;;;;;;6184382;23;20016;-81
2023/02/27 12:00:25;;;;;;;2.70;0.50;;;6.20;99.90;;;;;;6186562;23;20016;-82
2023/02/27 12:03:15;;;;;;;1.30;0.40;;;6.40;99.90;;;;;;6186886;23;20047;-82
2023/02/27 12:05:49;;;;;;;0.70;0.30;;;6.60;99.90;;;;;;6187178;23;20027;-81
2023/02/27 12:08:41;;;;;;;1.23;0.60;;;6.40;99.90;;;;;;6187944;23;20052;-83
2023/02/27 12:11:40;;;;;;;2.75;0.47;;;6.30;99.90;;;;;;6188338;23;20023;-84
2023/02/27 12:14:46;;;;;;;4.25;0.30;;;6.60;99.90;;;;;;6190899;23;20045;-83
2023/02/27 12:17:39;;;;;;;2.33;0.60;;;6.60;99.90;;;;;;6189039;23;20047;-83
2023/02/27 12:20:30;;;;;;;1.70;0.50;;;6.70;99.90;;;;;;6184700;23;20020;-85
2023/02/27 12:22:59;;;;;;;4.22;0.60;;;6.80;99.90;;;;;;6185662;23;20017;-82
2023/02/27 12:29:50;;;;;;;1.13;0.40;;;6.50;99.90;;;;;;6215465;23;20391;-84
2023/02/27 12:44:51;;;;;;;2.25;0.57;;;6.90;99.90;;;;;;6064096;23;20026;-84
2023/02/27 12:48:03;;;;;;;1.38;0.38;;;6.90;99.90;;;;;;6033180;23;20026;-85
2023/02/27 12:51:06;;;;;;;1.63;0.40;;;7.00;99.90;;;;;;6029269;23;20067;-83
2023/02/27 12:53:58;;;;;;;1.67;0.30;;;7.20;99.90;;;;;;6009208;23;20808;-83
2023/02/27 12:57:41;;;;;;;3.53;0.80;;;7.20;99.90;;;;;;6030910;23;20122;-84
2023/02/27 13:00:26;;;;;;;2.17;0.60;;;7.20;99.90;;;;;;6034095;23;20372;-83
2023/02/27 13:03:22;;;;;;;2.30;0.60;;;7.30;99.90;;;;;;6011913;23;20091;-83
2023/02/27 13:06:33;;;;;;;2.47;0.40;;;7.00;99.90;;;;;;6011527;23;20054;-83
2023/02/27 13:09:16;;;;;;;3.42;0.63;;;6.80;99.90;;;;;;6020934;23;20022;-84
2023/02/27 13:12:03;;;;;;;1.30;0.45;;;6.50;99.90;;;;;;6040298;23;20046;-84
2023/02/27 13:14:57;;;;;;;1.25;0.43;;;6.70;99.90;;;;;;5986890;23;20019;-84
2023/02/27 13:17:30;;;;;;;2.95;0.77;;;6.70;99.90;;;;;;5984275;23;20087;-85
2023/02/27 13:20:20;;;;;;;2.33;0.50;;;6.70;99.90;;;;;;6027392;23;20037;-83
2023/02/27 13:23:08;;;;;;;1.13;0.45;;;6.90;99.90;;;;;;6122729;23;20128;-82
2023/02/27 13:25:37;;;;;;;0.93;0.38;;;6.70;99.90;;;;;;6125956;23;20097;-84
2023/02/27 13:28:07;;;;;;;1.25;0.43;;;6.80;99.90;;;;;;6123384;23;20454;-83
2023/02/27 13:30:41;;;;;;;4.45;0.85;;;6.90;99.90;;;;;;6122684;23;20485;-83
2023/02/27 13:33:25;;;;;;;2.00;0.40;;;6.90;99.90;;;;;;6094764;23;20316;-82
2023/02/27 13:36:15;;;;;;;2.92;0.40;;;6.80;99.90;;;;;;6098136;23;20014;-83
2023/02/27 13:38:47;;;;;;;1.67;0.50;;;6.80;99.90;;;;;;6123025;23;20018;-82
2023/02/27 13:41:26;;;;;;;3.10;0.40;;;6.80;99.90;;;;;;6119875;23;20029;-83